createdAt,value
2023-04-12T00:01:47.747Z,4.27
2023-04-12T00:04:16.295Z,4.53
2023-04-12T00:06:48.311Z,4.60
2023-04-12T00:09:16.871Z,4.90
2023-04-12T00:11:44.867Z,4.33
2023-04-12T00:14:12.932Z,4.80
2023-04-12T00:16:41.650Z,4.40
2023-04-12T00:19:10.372Z,4.70
2023-04-12T00:21:38.389Z,4.50
2023-04-12T00:24:08.464Z,4.43
2023-04-12T00:26:36.523Z,4.53
2023-04-12T00:29:04.687Z,4.60
2023-04-12T00:31:32.710Z,4.40
2023-04-12T00:34:03.653Z,4.20
2023-04-12T00:36:31.808Z,4.40
2023-04-12T00:38:59.824Z,3.80
2023-04-12T00:41:29.209Z,3.90
2023-04-12T00:43:57.534Z,4.00
2023-04-12T00:46:25.784Z,3.73
2023-04-12T00:48:54.033Z,3.80
2023-04-12T00:51:22.295Z,4.13
2023-04-12T00:53:50.471Z,3.70
2023-04-12T00:56:19.821Z,3.47
2023-04-12T00:58:49.242Z,3.80
2023-04-12T01:01:19.361Z,3.63
2023-04-12T01:03:47.839Z,3.83
2023-04-12T01:06:27.000Z,3.50
2023-04-12T01:09:04.736Z,3.30
2023-04-12T01:11:37.468Z,3.53
2023-04-12T01:14:12.979Z,3.50
2023-04-12T01:16:46.213Z,3.13
2023-04-12T01:19:30.835Z,3.70
2023-04-12T01:22:13.366Z,3.30
2023-04-12T01:24:52.901Z,3.17
2023-04-12T01:27:47.493Z,2.70
2023-04-12T01:30:18.456Z,3.80
2023-04-12T01:32:50.759Z,3.37
2023-04-12T01:35:20.592Z,3.13
2023-04-12T01:37:49.044Z,3.10
2023-04-12T01:40:19.651Z,3.07
2023-04-12T01:42:49.014Z,3.10
2023-04-12T01:45:17.074Z,2.93
2023-04-12T01:47:45.387Z,2.83
2023-04-12T01:50:20.113Z,2.83
2023-04-12T01:53:01.271Z,2.90
2023-04-12T01:55:32.410Z,2.50
2023-04-12T01:58:04.220Z,2.60
2023-04-12T02:00:33.152Z,2.80
2023-04-12T02:03:01.554Z,2.80
2023-04-12T02:05:29.740Z,3.03
2023-04-12T02:07:58.072Z,3.40
2023-04-12T02:10:30.450Z,3.23
2023-04-12T02:13:01.671Z,3.37
2023-04-12T02:15:31.141Z,4.07
2023-04-12T02:18:01.642Z,4.03
2023-04-12T02:20:29.987Z,3.87
2023-04-12T02:22:58.012Z,4.50
2023-04-12T02:25:27.253Z,5.20
2023-04-12T02:27:55.643Z,4.77
2023-04-12T02:30:26.227Z,5.23
2023-04-12T02:32:56.223Z,5.63
2023-04-12T02:35:28.540Z,5.10
2023-04-12T02:38:03.945Z,5.20
2023-04-12T02:40:31.993Z,4.90
2023-04-12T02:43:00.073Z,5.57
2023-04-12T02:45:29.667Z,5.27
2023-04-12T02:47:58.632Z,5.10
2023-04-12T02:50:30.469Z,4.80
2023-04-12T02:53:10.802Z,4.67
2023-04-12T02:55:40.393Z,4.23
2023-04-12T02:58:09.863Z,4.73
2023-04-12T03:00:47.392Z,4.53
2023-04-12T03:03:18.823Z,4.47
2023-04-12T03:05:50.429Z,4.03
2023-04-12T03:08:19.072Z,4.37
2023-04-12T03:10:53.436Z,4.30
2023-04-12T03:13:22.370Z,3.67
2023-04-12T03:15:57.890Z,3.70
2023-04-12T03:18:32.704Z,3.93
2023-04-12T03:21:02.446Z,3.80
2023-04-12T03:23:31.240Z,4.17
2023-04-12T03:26:08.907Z,4.07
2023-04-12T03:28:36.960Z,3.70
2023-04-12T03:31:08.943Z,3.90
2023-04-12T03:33:41.534Z,3.67
2023-04-12T03:36:19.005Z,3.77
2023-04-12T03:38:52.507Z,3.80
2023-04-12T03:41:23.441Z,3.40
2023-04-12T03:43:51.482Z,3.17
2023-04-12T03:46:21.771Z,3.03
2023-04-12T03:48:56.785Z,2.90
2023-04-12T03:51:27.042Z,2.87
2023-04-12T03:54:03.595Z,3.00
2023-04-12T03:56:40.430Z,2.70
2023-04-12T03:59:14.853Z,2.70
2023-04-12T04:01:46.131Z,2.57
2023-04-12T04:04:14.404Z,2.03
2023-04-12T04:06:42.839Z,2.17
2023-04-12T04:09:10.918Z,2.50
2023-04-12T04:11:39.902Z,2.80
2023-04-12T04:14:08.776Z,2.40
2023-04-12T04:16:37.028Z,3.50
2023-04-12T04:19:09.264Z,2.27
2023-04-12T04:21:37.311Z,2.10
2023-04-12T04:24:07.012Z,1.93
2023-04-12T04:26:39.575Z,1.90
2023-04-12T04:29:20.936Z,2.13
2023-04-12T04:31:50.121Z,2.17
2023-04-12T04:34:20.038Z,1.83
2023-04-12T04:36:49.488Z,1.97
2023-04-12T04:39:27.198Z,1.90
2023-04-12T04:41:57.423Z,1.97
2023-04-12T04:44:51.092Z,2.10
2023-04-12T04:47:19.183Z,1.80
2023-04-12T04:49:49.787Z,1.77
2023-04-12T04:52:28.200Z,2.27
2023-04-12T04:55:04.050Z,2.17
2023-04-12T04:57:37.608Z,1.90
2023-04-12T05:00:11.441Z,2.00
2023-04-12T05:02:43.083Z,2.20
2023-04-12T05:05:15.949Z,2.10
2023-04-12T05:07:45.685Z,2.20
2023-04-12T05:10:13.724Z,1.47
2023-04-12T05:12:43.305Z,2.10
2023-04-12T05:15:13.675Z,1.80
2023-04-12T05:17:42.434Z,2.30
2023-04-12T05:20:11.900Z,2.17
2023-04-12T05:22:41.593Z,2.00
2023-04-12T05:25:10.553Z,1.70
2023-04-12T05:27:45.991Z,1.57
2023-04-12T05:30:17.217Z,1.70
2023-04-12T05:32:45.959Z,1.80
2023-04-12T05:35:16.166Z,1.80
2023-04-12T05:37:46.749Z,1.40
2023-04-12T05:40:15.024Z,1.70
2023-04-12T05:42:43.735Z,1.50
2023-04-12T05:45:13.006Z,1.60
2023-04-12T05:47:42.868Z,2.00
2023-04-12T05:50:11.738Z,1.60
2023-04-12T05:52:40.197Z,1.70
2023-04-12T05:55:11.198Z,2.00
2023-04-12T05:57:42.112Z,1.87
2023-04-12T06:00:14.243Z,1.50
2023-04-12T06:02:45.326Z,2.43
2023-04-12T06:05:13.922Z,2.13
2023-04-12T06:07:46.856Z,2.30
2023-04-12T06:10:18.055Z,2.00
2023-04-12T06:12:49.532Z,1.70
2023-04-12T06:15:19.742Z,2.10
2023-04-12T06:17:48.622Z,1.90
2023-04-12T06:20:16.809Z,1.83
2023-04-12T06:22:45.059Z,1.97
2023-04-12T06:25:17.953Z,2.07
2023-04-12T06:27:48.348Z,1.90
2023-04-12T06:30:19.523Z,1.60
2023-04-12T06:32:48.296Z,2.27
2023-04-12T06:35:16.902Z,1.70
2023-04-12T06:37:45.036Z,2.20
2023-04-12T06:40:13.575Z,1.43
2023-04-12T06:42:42.988Z,1.77
2023-04-12T06:45:13.369Z,2.00
2023-04-12T06:47:41.717Z,2.07
2023-04-12T06:50:10.644Z,2.27
2023-04-12T06:52:38.652Z,1.70
2023-04-12T06:55:08.163Z,1.97
2023-04-12T06:57:36.222Z,2.30
2023-04-12T07:00:06.659Z,2.40
2023-04-12T07:02:34.937Z,2.00
2023-04-12T07:05:03.022Z,1.97
2023-04-12T07:07:31.009Z,2.33
2023-04-12T07:10:00.255Z,2.17
2023-04-12T07:12:28.269Z,1.93
2023-04-12T07:14:56.302Z,1.80
2023-04-12T07:17:27.036Z,1.90
2023-04-12T07:19:55.414Z,1.90
2023-04-12T07:22:23.561Z,2.00
2023-04-12T07:24:52.288Z,1.60
2023-04-12T07:27:20.327Z,1.80
2023-04-12T07:29:48.682Z,2.00
2023-04-12T07:32:16.776Z,2.00
2023-04-12T07:34:46.146Z,2.20
2023-04-12T07:37:14.186Z,2.10
2023-04-12T07:39:42.329Z,2.00
2023-04-12T07:42:10.398Z,1.93
2023-04-12T07:44:39.018Z,1.83
2023-04-12T07:47:07.234Z,1.93
2023-04-12T07:49:35.301Z,1.70
2023-04-12T07:52:04.874Z,2.10
2023-04-12T07:54:32.903Z,2.13
2023-04-12T07:57:03.616Z,2.07
2023-04-12T07:59:32.441Z,2.80
2023-04-12T08:02:01.038Z,2.47
2023-04-12T08:04:32.058Z,2.20
2023-04-12T08:07:01.500Z,2.37
2023-04-12T08:09:31.151Z,1.77
2023-04-12T08:11:59.244Z,1.80
2023-04-12T08:14:27.408Z,2.67
2023-04-12T08:16:56.654Z,1.73
2023-04-12T08:19:25.204Z,1.67
2023-04-12T08:21:53.679Z,1.63
2023-04-12T08:24:21.684Z,1.80
2023-04-12T08:26:51.905Z,1.67
2023-04-12T08:29:19.964Z,1.90
2023-04-12T08:31:48.074Z,1.90
2023-04-12T08:34:16.205Z,1.50
2023-04-12T08:36:44.251Z,2.00
2023-04-12T08:39:12.277Z,2.87
2023-04-12T08:41:40.735Z,5.70
2023-04-12T08:44:12.369Z,4.30
2023-04-12T08:46:40.776Z,2.30
2023-04-12T08:49:08.883Z,2.07
2023-04-12T08:51:37.799Z,1.97
2023-04-12T08:54:06.652Z,1.77
2023-04-12T08:56:34.731Z,1.87
2023-04-12T08:59:03.527Z,1.60
2023-04-12T09:01:33.091Z,1.70
2023-04-12T09:04:01.437Z,2.00
2023-04-12T09:06:29.753Z,1.80
2023-04-12T09:08:59.405Z,3.73
2023-04-12T09:11:29.435Z,3.47
2023-04-12T09:13:59.183Z,2.57
2023-04-12T09:16:39.559Z,2.00
2023-04-12T09:19:08.068Z,2.17
2023-04-12T09:21:36.949Z,2.10
2023-04-12T09:24:11.060Z,1.83
2023-04-12T09:26:41.176Z,1.60
2023-04-12T09:29:24.990Z,1.93
2023-04-12T09:32:02.043Z,2.10
2023-04-12T09:34:30.655Z,2.23
2023-04-12T09:36:59.339Z,1.87
2023-04-12T09:39:34.524Z,1.87
2023-04-12T09:42:14.840Z,1.77
2023-04-12T09:44:46.534Z,2.13
2023-04-12T09:47:15.963Z,2.03
2023-04-12T09:49:45.417Z,1.97
2023-04-12T09:52:15.432Z,2.10
2023-04-12T09:54:45.526Z,2.33
2023-04-12T09:57:14.193Z,2.13
2023-04-12T09:59:43.150Z,2.20
2023-04-12T10:02:17.836Z,2.40
2023-04-12T10:04:47.031Z,2.20
2023-04-12T10:07:15.499Z,2.40
2023-04-12T10:09:43.559Z,2.33
2023-04-12T10:12:11.683Z,2.00
2023-04-12T10:14:40.847Z,2.87
2023-04-12T10:17:11.110Z,2.77
2023-04-12T10:19:41.039Z,2.53
2023-04-12T10:22:09.202Z,2.77
2023-04-12T10:24:37.485Z,3.00
2023-04-12T10:27:06.545Z,2.87
2023-04-12T10:29:37.102Z,3.27
2023-04-12T10:32:20.821Z,3.27
2023-04-12T10:34:53.987Z,2.80
2023-04-12T10:37:22.299Z,3.47
2023-04-12T10:39:54.530Z,2.73
2023-04-12T10:42:25.210Z,3.20
2023-04-12T10:44:54.803Z,2.47
2023-04-12T10:47:57.017Z,3.10
2023-04-12T10:50:29.532Z,3.30
2023-04-12T10:53:27.300Z,3.70
2023-04-12T10:55:55.448Z,4.20
2023-04-12T10:58:57.859Z,3.40
2023-04-12T11:01:29.782Z,3.53
2023-04-12T11:04:16.694Z,4.90
2023-04-12T11:06:59.875Z,5.57
2023-04-12T11:09:43.556Z,4.07
2023-04-12T11:12:29.744Z,3.43
2023-04-12T11:15:01.893Z,3.60
2023-04-12T11:17:55.504Z,2.90
2023-04-12T11:20:23.956Z,3.43
2023-04-12T11:22:54.765Z,3.13
2023-04-12T11:25:25.267Z,2.97
2023-04-12T11:27:54.787Z,3.10
2023-04-12T11:30:26.206Z,3.10
2023-04-12T11:32:54.275Z,3.07
2023-04-12T11:35:27.450Z,3.40
2023-04-12T11:37:58.358Z,3.30
2023-04-12T11:40:27.309Z,3.37
2023-04-12T11:42:57.573Z,3.03
2023-04-12T11:45:26.605Z,2.83
2023-04-12T11:47:57.971Z,2.80
2023-04-12T11:50:30.633Z,2.50
2023-04-12T11:53:12.659Z,2.40
2023-04-12T11:55:40.741Z,2.47
2023-04-12T11:58:08.823Z,2.77
2023-04-12T12:00:37.128Z,2.63
2023-04-12T12:03:08.524Z,2.60
2023-04-12T12:05:38.448Z,2.83
2023-04-12T12:08:08.254Z,3.17
2023-04-12T12:10:52.333Z,3.03
2023-04-12T12:13:27.216Z,2.70
2023-04-12T12:15:55.341Z,3.30
2023-04-12T12:18:28.803Z,3.63
2023-04-12T12:20:56.879Z,3.10
2023-04-12T12:23:32.394Z,5.00
2023-04-12T12:26:17.887Z,3.83
2023-04-12T12:28:51.988Z,3.87
2023-04-12T12:31:22.200Z,3.80
2023-04-12T12:33:52.528Z,3.50
2023-04-12T12:36:20.987Z,3.23
2023-04-12T12:38:51.250Z,3.20
2023-04-12T12:41:22.393Z,3.17
2023-04-12T12:43:51.606Z,4.63
2023-04-12T12:46:21.523Z,4.20
2023-04-12T12:48:49.883Z,3.23
2023-04-12T12:51:19.591Z,4.03
2023-04-12T12:53:48.062Z,3.40
2023-04-12T12:56:17.102Z,3.77
2023-04-12T12:58:46.753Z,3.67
2023-04-12T13:01:14.883Z,3.83
2023-04-12T13:03:43.063Z,4.43
2023-04-12T13:06:11.441Z,4.10
2023-04-12T13:08:39.445Z,3.83
2023-04-12T13:11:08.342Z,3.13
2023-04-12T13:13:38.227Z,3.17
2023-04-12T13:16:08.752Z,3.10
2023-04-12T13:18:36.829Z,3.13
2023-04-12T13:21:05.122Z,3.20
2023-04-12T13:23:33.220Z,2.77
2023-04-12T13:26:01.249Z,3.20
2023-04-12T13:28:29.250Z,2.80
2023-04-12T13:30:57.313Z,3.27
2023-04-12T13:33:27.074Z,3.20
2023-04-12T13:35:55.173Z,3.00
2023-04-12T13:38:23.235Z,3.17
2023-04-12T13:40:51.268Z,3.40
2023-04-12T13:43:19.591Z,2.63
2023-04-12T13:45:47.640Z,3.30
2023-04-12T13:48:15.740Z,3.30
2023-04-12T13:50:45.215Z,2.90
2023-04-12T13:53:13.274Z,3.90
2023-04-12T13:55:41.296Z,3.53
2023-04-12T13:58:09.317Z,4.40
2023-04-12T14:00:37.329Z,3.80
2023-04-12T14:03:05.656Z,4.00
2023-04-12T14:05:33.798Z,3.70
2023-04-12T14:08:03.152Z,3.70
2023-04-12T14:10:31.241Z,3.43
2023-04-12T14:12:59.290Z,3.40
2023-04-12T14:15:27.312Z,3.90
2023-04-12T14:17:55.806Z,4.70
2023-04-12T14:20:24.270Z,4.37
2023-04-12T14:22:52.328Z,4.20
2023-04-12T14:25:22.173Z,4.30
2023-04-12T14:27:50.523Z,4.60
2023-04-12T14:30:19.193Z,4.53
2023-04-12T14:32:49.346Z,4.77
2023-04-12T14:35:18.325Z,4.70
2023-04-12T14:37:47.647Z,4.40
2023-04-12T14:40:17.502Z,5.07
2023-04-12T14:42:46.850Z,5.03
2023-04-12T14:45:15.605Z,5.33
2023-04-12T14:47:43.728Z,5.43
2023-04-12T14:50:12.153Z,5.87
2023-04-12T14:52:40.313Z,5.10
2023-04-12T14:55:10.504Z,5.80
2023-04-12T14:57:39.522Z,5.37
2023-04-12T15:00:13.407Z,5.00
2023-04-12T15:02:42.382Z,5.80
2023-04-12T15:05:11.037Z,6.30
2023-04-12T15:07:39.218Z,5.27
2023-04-12T15:10:09.043Z,5.03
2023-04-12T15:12:37.346Z,4.57
2023-04-12T15:15:06.650Z,5.13
2023-04-12T15:17:38.152Z,4.90
2023-04-12T15:20:11.395Z,4.77
2023-04-12T15:22:40.301Z,5.03
2023-04-12T15:25:10.049Z,5.07
2023-04-12T15:27:38.618Z,5.07
2023-04-12T15:30:10.765Z,5.40
2023-04-12T15:32:42.367Z,5.93
2023-04-12T15:37:42.421Z,5.53
2023-04-12T15:40:13.667Z,5.67
2023-04-12T15:42:43.256Z,5.60
2023-04-12T15:45:12.075Z,5.30
2023-04-12T15:47:41.544Z,4.67
2023-04-12T15:50:10.240Z,5.23
2023-04-12T15:52:38.340Z,5.00
2023-04-12T15:55:07.091Z,5.03
2023-04-12T15:57:37.152Z,5.77
2023-04-12T16:00:12.915Z,5.40
2023-04-12T16:02:49.777Z,5.57
2023-04-12T16:05:18.244Z,5.20
2023-04-12T16:07:46.383Z,5.50
2023-04-12T16:10:14.409Z,5.30
2023-04-12T16:12:42.635Z,5.00
2023-04-12T16:15:11.586Z,5.50
2023-04-12T16:17:39.733Z,5.07
2023-04-12T16:20:12.674Z,5.70
2023-04-12T16:22:42.248Z,5.33
2023-04-12T16:25:11.976Z,4.80
2023-04-12T16:27:39.985Z,5.00
2023-04-12T16:30:10.435Z,5.20
2023-04-12T16:32:38.503Z,5.60
2023-04-12T16:35:09.605Z,4.90
2023-04-12T16:37:38.715Z,5.27
2023-04-12T16:40:10.605Z,5.30
2023-04-12T16:42:38.645Z,5.13
2023-04-12T16:45:08.747Z,5.73
2023-04-12T16:47:37.011Z,6.00
2023-04-12T16:50:08.537Z,5.73
2023-04-12T16:52:39.834Z,5.83
2023-04-12T16:55:10.857Z,6.80
2023-04-12T16:57:40.425Z,6.03
2023-04-12T17:00:21.030Z,5.83
2023-04-12T17:02:50.802Z,6.70
2023-04-12T17:05:20.142Z,6.47
2023-04-12T17:07:51.672Z,7.10
2023-04-12T17:10:21.683Z,6.30
2023-04-12T17:12:51.871Z,7.60
2023-04-12T17:15:21.882Z,6.87
2023-04-12T17:17:51.862Z,7.90
2023-04-12T17:20:22.121Z,7.60
2023-04-12T17:22:52.143Z,6.77
2023-04-12T17:25:22.053Z,7.27
2023-04-12T17:27:53.347Z,7.57
2023-04-12T17:30:21.619Z,7.97
2023-04-12T17:32:51.145Z,7.23
2023-04-12T17:35:20.023Z,7.27
2023-04-12T17:37:48.627Z,7.67
2023-04-12T17:40:18.457Z,7.40
2023-04-12T17:42:46.508Z,6.87
2023-04-12T17:45:14.722Z,7.17
2023-04-12T17:47:43.789Z,7.13
2023-04-12T17:50:13.078Z,7.50
2023-04-12T17:52:41.114Z,7.97
2023-04-12T17:55:10.515Z,8.20
2023-04-12T17:57:40.052Z,8.40
2023-04-12T18:00:11.599Z,8.43
2023-04-12T18:02:45.847Z,8.20
2023-04-12T18:05:14.417Z,8.23
2023-04-12T18:07:42.563Z,8.60
2023-04-12T18:10:12.649Z,8.53
2023-04-12T18:12:43.726Z,7.13
2023-04-12T18:15:12.708Z,6.10
2023-04-12T18:17:40.878Z,6.63
2023-04-12T18:20:11.254Z,4.37
2023-04-12T18:22:39.837Z,3.30
2023-04-12T18:25:09.163Z,3.20
2023-04-12T18:27:37.189Z,2.50
2023-04-12T18:30:09.150Z,2.73
2023-04-12T18:32:37.246Z,2.23
2023-04-12T18:35:05.862Z,2.40
2023-04-12T18:37:33.941Z,2.80
2023-04-12T18:40:01.986Z,2.87
2023-04-12T18:42:30.106Z,3.03
2023-04-12T18:44:59.175Z,2.40
2023-04-12T18:47:28.763Z,1.77
2023-04-12T18:49:57.179Z,1.50
2023-04-12T18:52:25.332Z,1.87
2023-04-12T18:54:53.488Z,1.80
2023-04-12T18:57:21.938Z,1.70
2023-04-12T18:59:51.435Z,1.53
2023-04-12T19:02:19.689Z,1.53
2023-04-12T19:04:49.184Z,1.30
2023-04-12T19:07:17.389Z,1.23
2023-04-12T19:09:46.981Z,1.40
2023-04-12T19:12:15.019Z,1.30
2023-04-12T19:14:43.051Z,1.37
2023-04-12T19:17:11.202Z,1.57
2023-04-12T19:19:39.237Z,1.63
2023-04-12T19:22:08.621Z,1.33
2023-04-12T19:24:36.728Z,1.80
2023-04-12T19:27:05.026Z,1.60
2023-04-12T19:29:33.063Z,1.40
2023-04-12T19:32:02.147Z,1.50
2023-04-12T19:34:30.408Z,1.53
2023-04-12T19:36:58.772Z,1.83
2023-04-12T19:39:28.212Z,1.70
2023-04-12T19:41:56.322Z,1.60
2023-04-12T19:44:25.703Z,1.50
2023-04-12T19:46:53.908Z,1.20
2023-04-12T19:49:23.711Z,1.70
2023-04-12T19:51:52.145Z,1.20
2023-04-12T19:54:23.472Z,1.60
2023-04-12T19:56:55.252Z,1.77
2023-04-12T19:59:25.245Z,1.60
2023-04-12T20:01:53.328Z,1.50
2023-04-12T20:04:24.080Z,1.30
2023-04-12T20:06:52.957Z,1.93
2023-04-12T20:09:22.273Z,1.70
2023-04-12T20:11:50.609Z,1.77
2023-04-12T20:14:20.490Z,1.80
2023-04-12T20:16:48.570Z,2.30
2023-04-12T20:19:17.773Z,2.50
2023-04-12T20:21:47.522Z,2.27
2023-04-12T20:24:15.603Z,2.50
2023-04-12T20:26:46.310Z,2.50
2023-04-12T20:29:14.941Z,2.27
2023-04-12T20:31:47.193Z,2.50
2023-04-12T20:34:17.586Z,2.17
2023-04-12T20:36:45.627Z,2.33
2023-04-12T20:39:13.664Z,2.00
2023-04-12T20:41:46.172Z,2.33
2023-04-12T20:44:14.249Z,2.27
2023-04-12T20:46:42.303Z,2.10
2023-04-12T20:49:12.742Z,2.10
2023-04-12T20:51:41.177Z,2.43
2023-04-12T20:54:09.530Z,2.20
2023-04-12T20:56:37.606Z,2.47
2023-04-12T20:59:05.710Z,2.13
2023-04-12T21:01:33.899Z,2.80
2023-04-12T21:04:06.162Z,2.80
2023-04-12T21:06:37.481Z,2.87
2023-04-12T21:09:05.833Z,2.67
2023-04-12T21:11:34.065Z,2.20
2023-04-12T21:14:02.256Z,2.57
2023-04-12T21:16:30.906Z,2.70
2023-04-12T21:18:59.561Z,2.47
2023-04-12T21:21:28.514Z,2.27
2023-04-12T21:23:57.908Z,2.37
2023-04-12T21:26:26.417Z,2.10
2023-04-12T21:28:54.806Z,2.60
2023-04-12T21:31:22.989Z,3.30
2023-04-12T21:33:51.832Z,3.87
2023-04-12T21:36:20.597Z,3.07
2023-04-12T21:38:50.432Z,2.30
2023-04-12T21:41:21.284Z,2.10
2023-04-12T21:43:49.577Z,1.87
2023-04-12T21:46:17.813Z,2.40
2023-04-12T21:48:45.959Z,2.73
2023-04-12T21:51:14.063Z,2.30
2023-04-12T21:53:42.108Z,2.30
2023-04-12T21:56:10.641Z,2.73
2023-04-12T21:58:40.931Z,3.00
2023-04-12T22:01:09.285Z,3.13
2023-04-12T22:03:37.517Z,3.00
2023-04-12T22:06:07.102Z,3.00
2023-04-12T22:08:35.190Z,3.00
2023-04-12T22:11:03.440Z,2.60
2023-04-12T22:13:31.767Z,2.57
2023-04-12T22:16:02.439Z,2.73
2023-04-12T22:18:31.892Z,2.77
2023-04-12T22:21:03.908Z,2.93
2023-04-12T22:23:31.985Z,2.60
2023-04-12T22:26:00.015Z,2.67
2023-04-12T22:28:28.313Z,3.10
2023-04-12T22:30:57.398Z,2.43
2023-04-12T22:33:27.125Z,3.13
2023-04-12T22:35:55.242Z,2.83
2023-04-12T22:38:23.291Z,2.87
2023-04-12T22:40:51.503Z,3.30
2023-04-12T22:43:20.959Z,2.97
2023-04-12T22:45:49.226Z,3.23
2023-04-12T22:48:17.324Z,2.97
2023-04-12T22:50:47.503Z,3.30
2023-04-12T22:53:15.851Z,3.27
2023-04-12T22:55:44.971Z,3.10
2023-04-12T22:58:13.070Z,3.60
2023-04-12T23:00:41.299Z,3.40
2023-04-12T23:03:11.111Z,3.50
2023-04-12T23:05:44.802Z,3.43
2023-04-12T23:08:14.825Z,3.37
2023-04-12T23:10:43.225Z,3.50
2023-04-12T23:13:11.916Z,3.60
2023-04-12T23:15:41.464Z,3.47
2023-04-12T23:18:10.564Z,3.23
2023-04-12T23:20:40.135Z,3.83
2023-04-12T23:23:08.335Z,4.40
2023-04-12T23:25:41.557Z,4.50
2023-04-12T23:28:13.014Z,3.80
2023-04-12T23:30:44.274Z,4.07
2023-04-12T23:33:12.881Z,4.03
2023-04-12T23:35:41.843Z,4.33
2023-04-12T23:38:10.629Z,5.00
2023-04-12T23:40:40.012Z,4.80
2023-04-12T23:43:08.976Z,4.60
2023-04-12T23:45:37.855Z,5.27
2023-04-12T23:48:06.907Z,5.70
2023-04-12T23:50:35.166Z,6.63
2023-04-12T23:53:03.657Z,6.13
2023-04-12T23:55:31.889Z,7.03
2023-04-12T23:58:01.412Z,6.73
